createdAt,value
2017-06-03T00:00:34.013Z,0
2017-06-03T00:01:34.001Z,0
2017-06-03T00:02:33.671Z,0
2017-06-03T00:03:33.654Z,0
2017-06-03T00:04:33.958Z,0
2017-06-03T00:05:33.925Z,0
2017-06-03T00:06:33.932Z,0
2017-06-03T00:07:33.949Z,0
2017-06-03T00:08:33.972Z,0
2017-06-03T00:09:33.889Z,0
2017-06-03T00:10:33.307Z,0
2017-06-03T00:11:33.845Z,0
2017-06-03T00:12:33.611Z,0
2017-06-03T00:13:33.849Z,0
2017-06-03T00:14:33.831Z,0
2017-06-03T00:15:32.941Z,0
2017-06-03T00:16:33.522Z,0
2017-06-03T00:17:33.785Z,0
2017-06-03T00:18:33.867Z,0
2017-06-03T00:19:33.775Z,0
2017-06-03T00:20:33.131Z,0
2017-06-03T00:21:33.222Z,0
2017-06-03T00:22:33.441Z,0
2017-06-03T00:23:33.131Z,0
2017-06-03T00:24:33.200Z,0
2017-06-03T00:25:33.740Z,0
2017-06-03T00:26:33.712Z,0
2017-06-03T00:27:33.664Z,0
2017-06-03T00:28:33.332Z,0
2017-06-03T00:29:33.645Z,0
2017-06-03T00:30:33.601Z,0
2017-06-03T00:31:33.280Z,0
2017-06-03T00:32:33.292Z,0
2017-06-03T00:33:33.276Z,0
2017-06-03T00:34:33.584Z,0
2017-06-03T00:35:33.624Z,0
2017-06-03T00:36:33.552Z,0
2017-06-03T00:37:33.250Z,0
2017-06-03T00:38:33.513Z,0
2017-06-03T00:39:33.500Z,0
2017-06-03T00:40:32.879Z,0
2017-06-03T00:41:33.270Z,0
2017-06-03T00:42:33.140Z,0
2017-06-03T00:43:33.137Z,0
2017-06-03T00:44:33.490Z,0
2017-06-03T00:45:32.870Z,0
2017-06-03T00:46:33.477Z,0
2017-06-03T00:47:33.079Z,0
2017-06-03T00:48:33.419Z,0
2017-06-03T00:49:33.382Z,0
2017-06-03T00:50:33.339Z,0
2017-06-03T00:51:33.355Z,0
2017-06-03T00:52:33.320Z,0
2017-06-03T00:53:32.720Z,0
2017-06-03T00:54:33.291Z,0
2017-06-03T00:55:32.972Z,0
2017-06-03T00:56:32.978Z,0
2017-06-03T00:57:32.966Z,0
2017-06-03T00:58:33.233Z,0
2017-06-03T00:59:33.230Z,0
2017-06-03T01:00:33.022Z,0
2017-06-03T01:01:33.200Z,0
2017-06-03T01:02:32.969Z,0
2017-06-03T01:03:33.181Z,0
2017-06-03T01:04:32.571Z,0
2017-06-03T01:05:33.149Z,0
2017-06-03T01:06:32.843Z,0
2017-06-03T01:07:32.806Z,0
2017-06-03T01:08:32.504Z,0
2017-06-03T01:09:32.190Z,0
2017-06-03T01:10:32.781Z,0
2017-06-03T01:11:32.759Z,0
2017-06-03T01:12:32.150Z,0
2017-06-03T01:13:32.431Z,0
2017-06-03T01:14:32.741Z,0
2017-06-03T01:15:32.769Z,0
2017-06-03T01:16:32.719Z,0
2017-06-03T01:17:32.373Z,0
2017-06-03T01:18:32.990Z,0
2017-06-03T01:19:32.703Z,0
2017-06-03T01:20:32.669Z,0
2017-06-03T01:21:32.647Z,0
2017-06-03T01:22:32.951Z,0
2017-06-03T01:23:32.610Z,0
2017-06-03T01:24:32.610Z,0
2017-06-03T01:25:33.020Z,0
2017-06-03T01:26:32.561Z,0
2017-06-03T01:27:32.590Z,0
2017-06-03T01:28:32.550Z,0
2017-06-03T01:29:32.231Z,0
2017-06-03T01:30:32.549Z,0
2017-06-03T01:31:32.890Z,0
2017-06-03T01:32:32.170Z,0
2017-06-03T01:33:32.471Z,0
2017-06-03T01:34:32.468Z,0
2017-06-03T01:35:32.838Z,0
2017-06-03T01:36:32.128Z,0
2017-06-03T01:37:32.501Z,0
2017-06-03T01:38:32.706Z,0
2017-06-03T01:39:32.399Z,0
2017-06-03T01:40:32.070Z,0
2017-06-03T01:41:32.391Z,0
2017-06-03T01:42:32.361Z,0
2017-06-03T01:43:32.359Z,0
2017-06-03T01:44:32.641Z,0
2017-06-03T01:45:32.309Z,0
2017-06-03T01:46:32.301Z,0
2017-06-03T01:47:32.620Z,0
2017-06-03T01:48:32.717Z,0
2017-06-03T01:49:32.025Z,0
2017-06-03T01:50:32.628Z,0
2017-06-03T01:51:31.945Z,0
2017-06-03T01:52:31.917Z,0
2017-06-03T01:53:32.600Z,0
2017-06-03T01:54:32.200Z,0
2017-06-03T01:55:32.205Z,0
2017-06-03T01:56:32.169Z,0
2017-06-03T01:57:32.466Z,0
2017-06-03T01:58:32.460Z,0
2017-06-03T01:59:32.442Z,0
2017-06-03T02:00:31.810Z,0
2017-06-03T02:01:32.439Z,0
2017-06-03T02:02:31.782Z,0
2017-06-03T02:03:31.759Z,0
2017-06-03T02:04:32.058Z,0
2017-06-03T02:05:32.360Z,0
2017-06-03T02:06:32.022Z,0
2017-06-03T02:07:32.036Z,0
2017-06-03T02:08:32.018Z,0
2017-06-03T02:09:31.997Z,0
2017-06-03T02:10:32.302Z,0
2017-06-03T02:11:31.966Z,0
2017-06-03T02:12:31.711Z,0
2017-06-03T02:13:31.629Z,0
2017-06-03T02:14:32.229Z,0
2017-06-03T02:15:32.237Z,0
2017-06-03T02:16:31.906Z,0
2017-06-03T02:17:31.901Z,0
2017-06-03T02:18:32.002Z,0
2017-06-03T02:19:31.562Z,0
2017-06-03T02:20:31.849Z,0
2017-06-03T02:21:31.848Z,0
2017-06-03T02:22:31.264Z,0
2017-06-03T02:23:32.130Z,0
2017-06-03T02:24:32.108Z,0
2017-06-03T02:25:32.080Z,0
2017-06-03T02:26:31.791Z,0
2017-06-03T02:27:32.068Z,0
2017-06-03T02:28:31.232Z,0
2017-06-03T02:29:32.020Z,0
2017-06-03T02:30:31.730Z,0
2017-06-03T02:31:32.004Z,0
2017-06-03T02:32:31.991Z,0
2017-06-03T02:33:31.999Z,0
2017-06-03T02:34:31.960Z,0
2017-06-03T02:35:31.340Z,0
2017-06-03T02:36:31.641Z,0
2017-06-03T02:37:31.612Z,0
2017-06-03T02:38:31.611Z,0
2017-06-03T02:39:31.283Z,0
2017-06-03T02:40:31.881Z,0
2017-06-03T02:41:31.570Z,0
2017-06-03T02:42:31.560Z,0
2017-06-03T02:43:31.540Z,0
2017-06-03T02:44:31.840Z,0
2017-06-03T02:45:31.232Z,0
2017-06-03T02:46:31.542Z,0
2017-06-03T02:47:31.532Z,0
2017-06-03T02:48:31.482Z,0
2017-06-03T02:49:31.570Z,4
2017-06-03T02:50:31.516Z,4
2017-06-03T02:51:31.436Z,4
2017-06-03T02:52:31.422Z,0
2017-06-03T02:53:31.101Z,0
2017-06-03T02:54:31.781Z,4
2017-06-03T02:55:31.072Z,4
2017-06-03T02:56:31.742Z,4
2017-06-03T02:57:31.354Z,4
2017-06-03T02:58:31.444Z,4
2017-06-03T02:59:31.430Z,8
2017-06-03T03:00:31.340Z,8
2017-06-03T03:01:31.110Z,4
2017-06-03T03:02:31.680Z,8
2017-06-03T03:03:31.309Z,8
2017-06-03T03:04:31.664Z,8
2017-06-03T03:05:31.604Z,12
2017-06-03T03:06:31.632Z,8
2017-06-03T03:07:31.591Z,12
2017-06-03T03:08:31.506Z,12
2017-06-03T03:09:31.549Z,12
2017-06-03T03:10:31.230Z,16
2017-06-03T03:11:30.846Z,16
2017-06-03T03:12:31.171Z,16
2017-06-03T03:13:31.481Z,16
2017-06-03T03:14:30.802Z,20
2017-06-03T03:15:31.513Z,20
2017-06-03T03:16:31.501Z,24
2017-06-03T03:17:31.082Z,24
2017-06-03T03:18:31.072Z,24
2017-06-03T03:19:31.361Z,24
2017-06-03T03:20:30.820Z,28
2017-06-03T03:21:30.711Z,28
2017-06-03T03:22:31.001Z,32
2017-06-03T03:23:30.722Z,32
2017-06-03T03:24:30.755Z,32
2017-06-03T03:25:31.291Z,32
2017-06-03T03:26:31.263Z,36
2017-06-03T03:27:31.250Z,36
2017-06-03T03:28:30.919Z,36
2017-06-03T03:29:31.273Z,40
2017-06-03T03:30:30.894Z,40
2017-06-03T03:31:31.257Z,40
2017-06-03T03:32:30.860Z,40
2017-06-03T03:33:30.859Z,40
2017-06-03T03:34:31.161Z,44
2017-06-03T03:35:30.819Z,44
2017-06-03T03:36:30.821Z,48
2017-06-03T03:37:30.803Z,52
2017-06-03T03:38:30.900Z,48
2017-06-03T03:39:31.071Z,48
2017-06-03T03:40:30.760Z,48
2017-06-03T03:41:31.048Z,48
2017-06-03T03:42:31.038Z,44
2017-06-03T03:43:30.410Z,44
2017-06-03T03:44:30.382Z,44
2017-06-03T03:45:30.712Z,44
2017-06-03T03:46:30.673Z,48
2017-06-03T03:47:30.961Z,48
2017-06-03T03:48:30.341Z,48
2017-06-03T03:49:30.952Z,44
2017-06-03T03:50:30.614Z,44
2017-06-03T03:51:30.614Z,44
2017-06-03T03:52:30.282Z,40
2017-06-03T03:53:30.570Z,40
2017-06-03T03:54:30.266Z,40
2017-06-03T03:55:30.847Z,44
2017-06-03T03:56:30.543Z,44
2017-06-03T03:57:30.543Z,48
2017-06-03T03:58:30.511Z,48
2017-06-03T03:59:30.192Z,52
2017-06-03T04:00:30.479Z,52
2017-06-03T04:01:30.471Z,60
2017-06-03T04:02:30.150Z,68
2017-06-03T04:03:29.828Z,72
2017-06-03T04:04:30.432Z,80
2017-06-03T04:05:30.749Z,84
2017-06-03T04:06:30.404Z,88
2017-06-03T04:07:30.691Z,92
2017-06-03T04:08:30.364Z,96
2017-06-03T04:09:30.052Z,104
2017-06-03T04:10:30.362Z,112
2017-06-03T04:11:30.331Z,124
2017-06-03T04:12:30.310Z,132
2017-06-03T04:13:30.611Z,136
2017-06-03T04:14:30.284Z,140
2017-06-03T04:15:30.052Z,140
2017-06-03T04:16:30.276Z,144
2017-06-03T04:17:30.591Z,148
2017-06-03T04:18:30.272Z,144
2017-06-03T04:19:29.931Z,144
2017-06-03T04:20:29.902Z,144
2017-06-03T04:21:29.972Z,140
2017-06-03T04:22:30.185Z,136
2017-06-03T04:23:30.182Z,132
2017-06-03T04:24:30.458Z,124
2017-06-03T04:25:30.531Z,124
2017-06-03T04:26:30.432Z,116
2017-06-03T04:27:29.872Z,120
2017-06-03T04:28:29.804Z,120
2017-06-03T04:29:30.103Z,116
2017-06-03T04:30:29.772Z,120
2017-06-03T04:31:29.815Z,128
2017-06-03T04:32:30.042Z,132
2017-06-03T04:33:30.124Z,136
2017-06-03T04:34:30.331Z,148
2017-06-03T04:35:30.135Z,156
2017-06-03T04:36:30.002Z,168
2017-06-03T04:37:29.684Z,188
2017-06-03T04:38:30.277Z,196
2017-06-03T04:39:30.299Z,200
2017-06-03T04:40:29.634Z,200
2017-06-03T04:41:29.321Z,196
2017-06-03T04:42:29.931Z,200
2017-06-03T04:43:29.621Z,196
2017-06-03T04:44:30.198Z,192
2017-06-03T04:45:29.564Z,192
2017-06-03T04:46:29.871Z,192
2017-06-03T04:47:29.862Z,192
2017-06-03T04:48:30.128Z,188
2017-06-03T04:49:30.112Z,188
2017-06-03T04:50:29.784Z,192
2017-06-03T04:51:29.791Z,196
2017-06-03T04:52:29.780Z,200
2017-06-03T04:53:30.064Z,208
2017-06-03T04:54:29.432Z,212
2017-06-03T04:55:30.033Z,212
2017-06-03T04:56:30.092Z,216
2017-06-03T04:57:30.031Z,224
2017-06-03T04:58:30.001Z,228
2017-06-03T04:59:29.059Z,232
2017-06-03T05:00:29.680Z,240
2017-06-03T05:01:29.034Z,248
2017-06-03T05:02:29.033Z,252
2017-06-03T05:03:29.622Z,264
2017-06-03T05:04:29.761Z,276
2017-06-03T05:05:29.731Z,288
2017-06-03T05:06:29.602Z,308
2017-06-03T05:07:29.571Z,332
2017-06-03T05:08:29.057Z,360
2017-06-03T05:09:29.661Z,396
2017-06-03T05:10:29.841Z,428
2017-06-03T05:11:29.546Z,472
2017-06-03T05:12:29.291Z,528
2017-06-03T05:13:29.796Z,576
2017-06-03T05:14:29.491Z,628
2017-06-03T05:15:29.761Z,676
2017-06-03T05:16:29.754Z,716
2017-06-03T05:17:29.741Z,740
2017-06-03T05:18:29.501Z,748
2017-06-03T05:19:29.120Z,760
2017-06-03T05:20:29.519Z,772
2017-06-03T05:21:29.394Z,788
2017-06-03T05:22:29.372Z,816
2017-06-03T05:23:29.671Z,852
2017-06-03T05:24:29.629Z,896
2017-06-03T05:25:29.621Z,960
2017-06-03T05:26:29.405Z,1024
2017-06-03T05:27:29.131Z,1060
2017-06-03T05:28:29.613Z,1052
2017-06-03T05:29:29.255Z,1004
2017-06-03T05:30:28.967Z,944
2017-06-03T05:31:29.233Z,888
2017-06-03T05:32:29.538Z,852
2017-06-03T05:33:28.902Z,832
2017-06-03T05:34:29.210Z,824
2017-06-03T05:35:29.244Z,828
2017-06-03T05:36:29.241Z,828
2017-06-03T05:37:29.481Z,836
2017-06-03T05:38:29.148Z,844
2017-06-03T05:39:29.234Z,872
2017-06-03T05:40:29.164Z,920
2017-06-03T05:41:29.108Z,956
2017-06-03T05:42:28.790Z,992
2017-06-03T05:43:28.763Z,1028
2017-06-03T05:44:29.187Z,1048
2017-06-03T05:45:29.062Z,1048
2017-06-03T05:46:29.036Z,1060
2017-06-03T05:47:28.732Z,1048
2017-06-03T05:48:29.028Z,1036
2017-06-03T05:49:29.402Z,1000
2017-06-03T05:50:29.047Z,992
2017-06-03T05:51:28.958Z,1008
2017-06-03T05:52:28.660Z,1044
2017-06-03T05:53:28.951Z,1100
2017-06-03T05:54:29.278Z,1188
2017-06-03T05:55:29.385Z,1292
2017-06-03T05:56:28.974Z,1392
2017-06-03T05:57:28.271Z,1500
2017-06-03T05:58:29.211Z,1596
2017-06-03T05:59:29.170Z,1692
2017-06-03T06:00:29.224Z,1804
2017-06-03T06:01:29.162Z,1920
2017-06-03T06:02:29.215Z,1996
2017-06-03T06:03:29.131Z,2036
2017-06-03T06:04:28.790Z,2024
2017-06-03T06:05:28.793Z,1908
2017-06-03T06:06:28.774Z,1740
2017-06-03T06:07:29.123Z,1628
2017-06-03T06:08:29.100Z,1572
2017-06-03T06:09:29.104Z,1536
2017-06-03T06:10:29.084Z,1512
2017-06-03T06:11:28.396Z,1476
2017-06-03T06:12:28.714Z,1464
2017-06-03T06:13:28.365Z,1492
2017-06-03T06:14:28.974Z,1544
2017-06-03T06:15:28.650Z,1632
2017-06-03T06:16:28.940Z,1712
2017-06-03T06:17:28.310Z,1776
2017-06-03T06:18:28.306Z,1824
2017-06-03T06:19:28.295Z,1872
2017-06-03T06:20:28.892Z,1920
2017-06-03T06:21:28.902Z,1940
2017-06-03T06:22:28.857Z,1956
2017-06-03T06:23:28.551Z,1968
2017-06-03T06:24:28.865Z,1992
2017-06-03T06:25:28.836Z,2028
2017-06-03T06:26:28.504Z,2104
2017-06-03T06:27:28.502Z,2192
2017-06-03T06:28:28.481Z,2280
2017-06-03T06:29:28.467Z,2372
2017-06-03T06:30:28.761Z,2508
2017-06-03T06:31:28.138Z,2584
2017-06-03T06:32:28.428Z,2624
2017-06-03T06:33:28.428Z,2600
2017-06-03T06:34:28.389Z,2512
2017-06-03T06:35:28.713Z,2440
2017-06-03T06:36:28.690Z,2332
2017-06-03T06:37:28.680Z,2240
2017-06-03T06:38:28.040Z,2152
2017-06-03T06:39:28.038Z,2020
2017-06-03T06:40:28.334Z,1860
2017-06-03T06:41:28.331Z,1748
2017-06-03T06:42:28.000Z,1756
2017-06-03T06:43:28.283Z,1748
2017-06-03T06:44:28.584Z,1760
2017-06-03T06:45:28.570Z,1756
2017-06-03T06:46:28.263Z,1752
2017-06-03T06:47:28.544Z,1648
2017-06-03T06:48:28.524Z,1548
2017-06-03T06:49:27.891Z,1452
2017-06-03T06:50:28.497Z,1416
2017-06-03T06:51:28.192Z,1380
2017-06-03T06:52:28.161Z,1360
2017-06-03T06:53:28.459Z,1360
2017-06-03T06:54:28.451Z,1396
2017-06-03T06:55:28.466Z,1484
2017-06-03T06:56:27.810Z,1628
2017-06-03T06:57:28.111Z,1792
2017-06-03T06:58:28.404Z,1924
2017-06-03T06:59:27.882Z,1968
2017-06-03T07:00:27.767Z,1952
2017-06-03T07:01:27.563Z,1972
2017-06-03T07:02:28.391Z,1960
2017-06-03T07:03:28.040Z,1952
2017-06-03T07:04:28.020Z,1944
2017-06-03T07:05:28.119Z,1932
2017-06-03T07:06:27.693Z,1940
2017-06-03T07:07:28.322Z,1920
2017-06-03T07:08:27.667Z,1872
2017-06-03T07:09:27.666Z,1852
2017-06-03T07:10:27.930Z,1860
2017-06-03T07:11:27.981Z,1904
2017-06-03T07:12:27.920Z,1928
2017-06-03T07:13:27.693Z,1876
2017-06-03T07:14:27.887Z,1812
2017-06-03T07:15:27.893Z,1756
2017-06-03T07:16:27.890Z,1732
2017-06-03T07:17:27.886Z,1768
2017-06-03T07:18:27.853Z,1900
2017-06-03T07:19:28.170Z,1996
2017-06-03T07:20:28.130Z,1968
2017-06-03T07:21:27.854Z,2000
2017-06-03T07:22:27.794Z,2012
2017-06-03T07:23:27.791Z,1908
2017-06-03T07:24:28.130Z,1668
2017-06-03T07:25:27.751Z,1492
2017-06-03T07:26:27.743Z,1452
2017-06-03T07:27:28.076Z,1308
2017-06-03T07:28:28.010Z,1188
2017-06-03T07:29:27.410Z,1168
2017-06-03T07:30:28.049Z,1168
2017-06-03T07:31:27.986Z,1300
2017-06-03T07:32:27.680Z,1452
2017-06-03T07:33:27.691Z,1560
2017-06-03T07:34:27.637Z,1664
2017-06-03T07:35:27.307Z,1688
2017-06-03T07:36:27.905Z,1688
2017-06-03T07:37:27.292Z,1732
2017-06-03T07:38:27.880Z,1740
2017-06-03T07:39:27.587Z,1828
2017-06-03T07:40:27.929Z,1780
2017-06-03T07:41:27.576Z,1684
2017-06-03T07:42:27.851Z,1612
2017-06-03T07:43:27.840Z,1604
2017-06-03T07:44:27.829Z,1652
2017-06-03T07:45:27.589Z,1696
2017-06-03T07:46:27.500Z,1708
2017-06-03T07:47:27.194Z,1752
2017-06-03T07:48:27.476Z,1936
2017-06-03T07:49:27.150Z,2144
2017-06-03T07:50:27.746Z,2324
2017-06-03T07:51:27.490Z,2460
2017-06-03T07:52:27.419Z,2408
2017-06-03T07:53:27.490Z,2220
2017-06-03T07:54:27.077Z,2112
2017-06-03T07:55:27.065Z,2160
2017-06-03T07:56:27.657Z,2204
2017-06-03T07:57:27.340Z,2164
2017-06-03T07:58:27.432Z,2136
2017-06-03T07:59:27.361Z,2044
2017-06-03T08:00:27.339Z,1920
2017-06-03T08:01:27.351Z,1804
2017-06-03T08:02:27.340Z,1760
2017-06-03T08:03:27.272Z,1788
2017-06-03T08:04:27.255Z,1928
2017-06-03T08:05:27.330Z,2084
2017-06-03T08:06:27.306Z,2188
2017-06-03T08:07:27.528Z,2352
2017-06-03T08:08:26.911Z,2552
2017-06-03T08:09:26.922Z,2724
2017-06-03T08:10:27.290Z,3020
2017-06-03T08:11:26.573Z,3460
2017-06-03T08:12:27.164Z,3920
2017-06-03T08:13:26.853Z,4332
2017-06-03T08:14:27.512Z,5108
2017-06-03T08:15:27.482Z,6088
2017-06-03T08:16:27.429Z,6588
2017-06-03T08:17:27.115Z,6684
2017-06-03T08:18:27.403Z,6352
2017-06-03T08:19:27.079Z,5888
2017-06-03T08:20:27.389Z,6252
2017-06-03T08:21:27.450Z,7048
2017-06-03T08:22:27.151Z,8080
2017-06-03T08:23:27.040Z,9208
2017-06-03T08:24:26.733Z,10568
2017-06-03T08:25:27.320Z,12172
2017-06-03T08:26:27.001Z,13504
2017-06-03T08:27:27.346Z,14260
2017-06-03T08:28:27.310Z,14788
2017-06-03T08:29:26.978Z,14784
2017-06-03T08:30:26.969Z,12132
2017-06-03T08:31:26.950Z,10928
2017-06-03T08:32:27.250Z,10796
2017-06-03T08:33:26.627Z,10500
2017-06-03T08:34:26.897Z,10336
2017-06-03T08:35:26.909Z,10460
2017-06-03T08:36:27.188Z,10844
2017-06-03T08:37:27.188Z,11800
2017-06-03T08:38:27.192Z,12044
2017-06-03T08:39:26.850Z,13320
2017-06-03T08:40:26.534Z,14960
2017-06-03T08:41:27.126Z,15032
2017-06-03T08:42:26.519Z,14872
2017-06-03T08:43:27.139Z,16488
2017-06-03T08:44:26.803Z,16688
2017-06-03T08:45:27.100Z,15760
2017-06-03T08:46:26.511Z,15356
2017-06-03T08:47:27.098Z,14872
2017-06-03T08:48:26.762Z,15552
2017-06-03T08:49:26.753Z,15816
2017-06-03T08:50:26.761Z,15732
2017-06-03T08:51:27.052Z,15692
2017-06-03T08:52:26.732Z,16236
2017-06-03T08:53:26.739Z,15824
2017-06-03T08:54:26.107Z,15944
2017-06-03T08:55:27.018Z,16992
2017-06-03T08:56:27.000Z,17056
2017-06-03T08:57:26.690Z,16176
2017-06-03T08:58:26.371Z,17152
2017-06-03T08:59:26.681Z,20384
2017-06-03T09:00:26.360Z,25504
2017-06-03T09:01:26.654Z,33504
2017-06-03T09:02:26.634Z,36416
2017-06-03T09:03:26.630Z,39872
2017-06-03T09:04:26.619Z,42784
2017-06-03T09:05:26.933Z,58816
2017-06-03T09:06:26.940Z,62880
2017-06-03T09:07:26.612Z,64320
2017-06-03T09:08:26.598Z,62784
2017-06-03T09:09:26.687Z,62880
2017-06-03T09:10:26.595Z,59456
2017-06-03T09:11:26.703Z,65760
2017-06-03T09:12:26.934Z,70048
2017-06-03T09:13:26.550Z,66624
2017-06-03T09:14:26.249Z,59936
2017-06-03T09:15:26.595Z,61632
2017-06-03T09:16:26.550Z,58432
2017-06-03T09:17:26.840Z,55808
2017-06-03T09:18:26.842Z,59136
2017-06-03T09:19:26.543Z,61024
2017-06-03T09:20:26.518Z,56512
2017-06-03T09:21:26.562Z,54080
2017-06-03T09:22:26.831Z,53376
2017-06-03T09:23:26.820Z,57120
2017-06-03T09:24:26.509Z,58656
2017-06-03T09:25:26.799Z,57344
2017-06-03T09:26:26.496Z,55008
2017-06-03T09:27:26.770Z,53152
2017-06-03T09:28:26.467Z,56640
2017-06-03T09:29:26.463Z,56544
2017-06-03T09:30:26.810Z,57696
2017-06-03T09:31:26.463Z,57760
2017-06-03T09:32:26.759Z,55744
2017-06-03T09:33:26.477Z,58400
2017-06-03T09:34:26.758Z,59104
2017-06-03T09:35:26.749Z,55904
2017-06-03T09:36:26.471Z,55072
2017-06-03T09:37:26.758Z,49888
2017-06-03T09:38:26.732Z,46816
2017-06-03T09:39:26.432Z,42752
2017-06-03T09:40:26.850Z,47872
2017-06-03T09:41:26.722Z,46720
2017-06-03T09:42:26.779Z,48192
2017-06-03T09:43:26.780Z,47712
2017-06-03T09:44:26.418Z,43584
2017-06-03T09:45:26.711Z,43488
2017-06-03T09:46:26.481Z,41952
2017-06-03T09:47:26.393Z,41632
2017-06-03T09:48:26.452Z,40640
2017-06-03T09:49:26.681Z,44192
2017-06-03T09:50:26.731Z,46240
2017-06-03T09:51:26.669Z,45344
2017-06-03T09:52:26.670Z,46016
2017-06-03T09:53:26.374Z,40192
2017-06-03T09:54:26.714Z,35072
2017-06-03T09:55:26.053Z,30656
2017-06-03T09:56:26.681Z,38304
2017-06-03T09:57:26.689Z,37280
2017-06-03T09:58:26.645Z,24384
2017-06-03T09:59:26.649Z,33984
2017-06-03T10:00:26.356Z,37312
2017-06-03T10:01:26.649Z,36064
2017-06-03T10:02:26.629Z,32672
2017-06-03T10:03:26.691Z,33184
2017-06-03T10:04:26.330Z,32960
2017-06-03T10:05:26.636Z,32864
2017-06-03T10:06:26.621Z,34336
2017-06-03T10:07:26.660Z,32192
2017-06-03T10:08:26.339Z,31296
2017-06-03T10:09:26.597Z,29632
2017-06-03T10:10:26.291Z,27904
2017-06-03T10:11:26.039Z,28512
2017-06-03T10:12:26.619Z,30016
2017-06-03T10:13:26.697Z,31808
2017-06-03T10:14:25.999Z,29952
2017-06-03T10:15:26.364Z,29376
2017-06-03T10:16:26.589Z,28512
2017-06-03T10:17:26.623Z,28768
2017-06-03T10:18:26.575Z,28416
2017-06-03T10:19:26.615Z,27392
2017-06-03T10:20:26.290Z,25408
2017-06-03T10:21:26.603Z,23872
2017-06-03T10:22:26.298Z,19296
2017-06-03T10:23:26.559Z,14620
2017-06-03T10:24:26.582Z,13408
2017-06-03T10:25:26.552Z,13108
2017-06-03T10:26:26.553Z,12812
2017-06-03T10:27:26.591Z,12524
2017-06-03T10:28:26.259Z,12832
2017-06-03T10:29:26.532Z,12872
2017-06-03T10:30:26.547Z,12880
2017-06-03T10:31:26.524Z,12788
2017-06-03T10:32:26.512Z,12944
2017-06-03T10:33:26.514Z,12860
2017-06-03T10:34:26.500Z,11628
2017-06-03T10:35:26.524Z,11816
2017-06-03T10:36:26.490Z,12988
2017-06-03T10:37:26.495Z,13004
2017-06-03T10:38:26.470Z,12872
2017-06-03T10:39:25.553Z,12924
2017-06-03T10:40:26.473Z,12064
2017-06-03T10:41:26.222Z,12872
2017-06-03T10:42:26.474Z,12572
2017-06-03T10:43:26.167Z,12596
2017-06-03T10:44:26.150Z,12284
2017-06-03T10:45:26.139Z,12160
2017-06-03T10:46:26.478Z,12304
2017-06-03T10:47:26.553Z,12132
2017-06-03T10:48:26.454Z,10544
2017-06-03T10:49:26.135Z,10252
2017-06-03T10:50:26.500Z,10244
2017-06-03T10:51:26.454Z,11196
2017-06-03T10:52:25.911Z,11728
2017-06-03T10:53:26.473Z,11484
2017-06-03T10:54:26.406Z,11856
2017-06-03T10:55:26.077Z,11556
2017-06-03T10:56:26.503Z,11236
2017-06-03T10:57:26.437Z,11472
2017-06-03T10:58:26.381Z,11568
2017-06-03T10:59:26.448Z,10328
2017-06-03T11:00:26.374Z,9972
2017-06-03T11:01:25.796Z,9520
2017-06-03T11:02:26.047Z,9436
2017-06-03T11:03:26.039Z,10712
2017-06-03T11:04:26.027Z,10924
2017-06-03T11:05:26.037Z,11556
2017-06-03T11:06:26.391Z,11452
2017-06-03T11:07:26.320Z,11176
2017-06-03T11:08:26.009Z,11144
2017-06-03T11:09:26.006Z,10696
2017-06-03T11:10:26.299Z,10052
2017-06-03T11:11:26.000Z,10072
2017-06-03T11:12:26.287Z,10248
2017-06-03T11:13:26.290Z,9416
2017-06-03T11:14:25.345Z,9336
2017-06-03T11:15:26.060Z,10708
2017-06-03T11:16:25.964Z,10888
2017-06-03T11:17:26.259Z,10828
2017-06-03T11:18:25.948Z,10900
2017-06-03T11:19:26.256Z,10956
2017-06-03T11:20:25.706Z,10660
2017-06-03T11:21:25.633Z,10508
2017-06-03T11:22:26.232Z,10448
2017-06-03T11:23:26.332Z,10580
2017-06-03T11:24:25.990Z,10656
2017-06-03T11:25:25.986Z,10876
2017-06-03T11:26:25.936Z,10412
2017-06-03T11:27:25.969Z,10544
2017-06-03T11:28:25.568Z,10520
2017-06-03T11:29:26.279Z,8624
2017-06-03T11:30:26.240Z,7948
2017-06-03T11:31:26.201Z,7484
2017-06-03T11:32:26.196Z,7068
2017-06-03T11:33:26.188Z,7020
2017-06-03T11:34:25.868Z,7936
2017-06-03T11:35:26.151Z,8012
2017-06-03T11:36:26.150Z,8156
2017-06-03T11:37:25.522Z,10988
2017-06-03T11:38:25.815Z,10904
2017-06-03T11:39:26.165Z,11380
2017-06-03T11:40:26.127Z,11304
2017-06-03T11:41:26.129Z,11044
2017-06-03T11:42:25.519Z,10284
2017-06-03T11:43:26.097Z,10356
2017-06-03T11:44:26.108Z,8004
2017-06-03T11:45:26.108Z,9660
2017-06-03T11:46:25.787Z,8792
2017-06-03T11:47:26.068Z,9700
2017-06-03T11:48:26.079Z,9784
2017-06-03T11:49:25.758Z,9680
2017-06-03T11:50:26.049Z,9160
2017-06-03T11:51:26.053Z,7708
2017-06-03T11:52:26.066Z,8184
2017-06-03T11:53:26.042Z,9312
2017-06-03T11:54:26.050Z,9532
2017-06-03T11:55:26.053Z,9328
2017-06-03T11:56:25.788Z,8900
2017-06-03T11:57:25.409Z,8556
2017-06-03T11:58:25.802Z,8676
2017-06-03T11:59:25.412Z,8516
2017-06-03T12:00:25.390Z,8444
2017-06-03T12:01:25.986Z,8096
2017-06-03T12:02:26.090Z,8084
2017-06-03T12:03:25.387Z,8664
2017-06-03T12:04:25.370Z,9280
2017-06-03T12:05:25.992Z,9684
2017-06-03T12:06:25.352Z,9656
2017-06-03T12:07:25.717Z,9360
2017-06-03T12:08:25.967Z,9820
2017-06-03T12:09:25.341Z,9928
2017-06-03T12:10:25.642Z,9568
2017-06-03T12:11:25.632Z,9432
2017-06-03T12:12:25.939Z,9664
2017-06-03T12:13:25.627Z,10072
2017-06-03T12:14:25.312Z,10056
2017-06-03T12:15:25.960Z,9988
2017-06-03T12:16:25.628Z,9668
2017-06-03T12:17:25.595Z,10080
2017-06-03T12:18:25.888Z,9796
2017-06-03T12:19:25.586Z,10508
2017-06-03T12:20:25.579Z,10756
2017-06-03T12:21:25.901Z,11064
2017-06-03T12:22:25.634Z,10896
2017-06-03T12:23:25.865Z,11252
2017-06-03T12:24:25.658Z,10956
2017-06-03T12:25:25.651Z,10948
2017-06-03T12:26:25.847Z,10768
2017-06-03T12:27:25.234Z,10908
2017-06-03T12:28:25.539Z,10496
2017-06-03T12:29:25.556Z,10736
2017-06-03T12:30:25.825Z,11256
2017-06-03T12:31:25.806Z,11472
2017-06-03T12:32:25.217Z,11876
2017-06-03T12:33:25.570Z,11672
2017-06-03T12:34:25.811Z,11156
2017-06-03T12:35:25.519Z,10804
2017-06-03T12:36:25.918Z,10420
2017-06-03T12:37:25.532Z,10004
2017-06-03T12:38:25.477Z,9336
2017-06-03T12:39:25.776Z,8420
2017-06-03T12:40:25.171Z,9564
2017-06-03T12:41:25.157Z,10548
2017-06-03T12:42:25.444Z,10416
2017-06-03T12:43:25.781Z,9832
2017-06-03T12:44:25.445Z,9052
2017-06-03T12:45:25.447Z,8524
2017-06-03T12:46:25.445Z,8008
2017-06-03T12:47:25.748Z,6864
2017-06-03T12:48:25.737Z,6512
2017-06-03T12:49:25.119Z,6116
2017-06-03T12:50:25.419Z,5696
2017-06-03T12:51:25.413Z,5596
2017-06-03T12:52:25.400Z,5488
2017-06-03T12:53:25.396Z,5376
2017-06-03T12:54:25.076Z,5168
2017-06-03T12:55:25.385Z,5012
2017-06-03T12:56:25.680Z,5012
2017-06-03T12:57:25.108Z,5200
2017-06-03T12:58:25.368Z,5424
2017-06-03T12:59:25.494Z,5576
2017-06-03T13:00:25.643Z,5496
2017-06-03T13:01:25.670Z,5340
2017-06-03T13:02:25.042Z,5264
2017-06-03T13:03:25.318Z,5192
2017-06-03T13:04:25.022Z,5148
2017-06-03T13:05:25.319Z,5064
2017-06-03T13:06:25.610Z,4936
2017-06-03T13:07:25.302Z,4848
2017-06-03T13:08:25.427Z,4844
2017-06-03T13:09:25.608Z,4876
2017-06-03T13:10:25.698Z,4880
2017-06-03T13:11:25.578Z,4856
2017-06-03T13:12:25.286Z,4840
2017-06-03T13:13:25.577Z,4860
2017-06-03T13:14:25.579Z,4912
2017-06-03T13:15:25.259Z,4972
2017-06-03T13:16:25.287Z,5084
2017-06-03T13:17:25.240Z,5192
2017-06-03T13:18:25.555Z,5316
2017-06-03T13:19:25.592Z,5416
2017-06-03T13:20:25.557Z,5440
2017-06-03T13:21:25.218Z,5404
2017-06-03T13:22:24.898Z,5328
2017-06-03T13:23:25.508Z,5320
2017-06-03T13:24:25.224Z,5352
2017-06-03T13:25:25.537Z,5456
2017-06-03T13:26:25.493Z,5596
2017-06-03T13:27:25.535Z,5812
2017-06-03T13:28:25.486Z,5988
2017-06-03T13:29:25.474Z,6100
2017-06-03T13:30:25.479Z,6152
2017-06-03T13:31:25.140Z,6064
2017-06-03T13:32:25.152Z,5912
2017-06-03T13:33:25.438Z,5852
2017-06-03T13:34:24.826Z,5820
2017-06-03T13:35:25.457Z,6164
2017-06-03T13:36:25.438Z,6388
2017-06-03T13:37:25.098Z,6848